Time,TemperatureF,DewpointF,PressureIn,WindDirection,WindDirectionDegrees,WindSpeedMPH,WindSpeedGustMPH,Humidity,HourlyPrecipIn,Conditions,Clouds,dailyrainin,SoftwareType,DateUTC
2013-05-20 00:01:00,76.0,70.1,32.19,SSE,165,0.0,0.0,82,0.00,,---,0.00,VWS V14.00,2013-05-20 04:01:00,
2013-05-20 00:02:00,76.0,70.1,32.19,SSE,165,0.0,0.0,82,0.00,,---,0.00,VWS V14.00,2013-05-20 04:02:00,
2013-05-20 00:05:00,75.9,70.0,32.19,SSE,165,0.0,0.0,82,0.00,,---,0.00,VWS V14.00,2013-05-20 04:05:00,
2013-05-20 00:10:00,76.2,70.3,32.19,SE,146,0.0,1.0,82,0.00,,---,0.00,VWS V14.00,2013-05-20 04:10:00,
2013-05-20 00:15:00,76.4,70.5,32.19,SSE,149,0.0,1.0,82,0.00,,---,0.00,VWS V14.00,2013-05-20 04:15:00,
2013-05-20 00:20:00,76.4,70.5,32.19,SSE,165,0.0,1.0,82,0.00,,---,0.00,VWS V14.00,2013-05-20 04:20:00,
2013-05-20 00:25:00,76.4,70.5,31.92,SSE,168,0.0,1.0,82,0.00,,---,0.00,VWS V14.00,2013-05-20 04:25:00,
2013-05-20 00:30:00,76.5,70.6,31.92,South,169,0.0,1.0,82,0.00,,---,0.00,VWS V14.00,2013-05-20 04:30:00,
2013-05-20 00:35:00,76.6,70.7,31.92,South,173,0.0,1.0,82,0.00,,---,0.00,VWS V14.00,2013-05-20 04:35:00,
2013-05-20 00:40:00,76.6,70.7,31.92,South,182,0.0,1.0,82,0.00,,---,0.00,VWS V14.00,2013-05-20 04:40:00,
2013-05-20 00:46:00,76.6,70.7,31.92,South,175,6.0,10.0,82,0.00,,---,0.00,VWS V14.00,2013-05-20 04:46:00,
2013-05-20 00:51:00,76.6,70.7,31.92,South,178,0.0,10.0,82,0.00,,---,0.00,VWS V14.00,2013-05-20 04:51:00,
2013-05-20 00:56:00,76.4,70.9,31.92,South,172,0.0,10.0,83,0.00,,---,0.00,VWS V14.00,2013-05-20 04:56:00,
2013-05-20 01:01:00,76.1,70.6,31.92,South,185,5.0,10.0,83,0.00,,---,0.00,VWS V14.00,2013-05-20 05:01:00,
2013-05-20 01:06:00,76.0,70.5,31.92,South,180,0.0,10.0,83,0.00,,---,0.00,VWS V14.00,2013-05-20 05:06:00,
2013-05-20 01:11:00,75.9,70.7,31.92,South,184,0.0,9.0,84,0.00,,---,0.00,VWS V14.00,2013-05-20 05:11:00,
2013-05-20 01:16:00,75.8,70.6,31.92,South,176,5.0,9.0,84,0.00,,---,0.00,VWS V14.00,2013-05-20 05:16:00,
2013-05-20 01:21:00,75.8,70.6,31.92,South,175,0.0,9.0,84,0.00,,---,0.00,VWS V14.00,2013-05-20 05:21:00,
2013-05-20 01:26:00,75.6,70.8,31.92,South,182,0.0,11.0,85,0.00,,---,0.00,VWS V14.00,2013-05-20 05:26:00,
2013-05-20 01:31:00,75.4,70.6,31.92,South,179,0.0,11.0,85,0.00,,---,0.00,VWS V14.00,2013-05-20 05:31:00,
2013-05-20 01:36:00,75.4,70.6,31.92,South,173,0.0,11.0,85,0.00,,---,0.00,VWS V14.00,2013-05-20 05:36:00,
2013-05-20 01:42:00,75.4,70.6,31.92,South,176,0.0,6.0,85,0.00,,---,0.00,VWS V14.00,2013-05-20 05:42:00,
2013-05-20 01:47:00,75.4,70.6,31.92,South,170,0.0,6.0,85,0.00,,---,0.00,VWS V14.00,2013-05-20 05:47:00,
2013-05-20 01:52:00,75.3,70.5,31.92,South,169,0.0,6.0,85,0.00,,---,0.00,VWS V14.00,2013-05-20 05:52:00,
2013-05-20 01:57:00,75.0,70.2,31.92,South,170,0.0,6.0,85,0.00,,---,0.00,VWS V14.00,2013-05-20 05:57:00,
2013-05-20 02:02:00,74.8,70.3,31.92,South,169,0.0,6.0,86,0.00,,---,0.00,VWS V14.00,2013-05-20 06:02:00,
2013-05-20 02:07:00,74.5,70.0,31.92,South,169,0.0,0.0,86,0.00,,---,0.00,VWS V14.00,2013-05-20 06:07:00,
2013-05-20 02:12:00,74.3,69.8,31.92,South,170,0.0,0.0,86,0.00,,---,0.00,VWS V14.00,2013-05-20 06:12:00,
2013-05-20 02:17:00,74.1,70.0,31.92,South,169,0.0,0.0,87,0.00,,---,0.00,VWS V14.00,2013-05-20 06:17:00,
2013-05-20 02:22:00,74.0,69.9,31.92,South,170,0.0,0.0,87,0.00,,---,0.00,VWS V14.00,2013-05-20 06:22:00,
2013-05-20 02:27:00,74.2,70.4,31.92,South,175,0.0,1.0,88,0.00,,---,0.00,VWS V14.00,2013-05-20 06:27:00,
2013-05-20 02:33:00,74.3,70.2,31.92,South,172,0.0,1.0,87,0.00,,---,0.00,VWS V14.00,2013-05-20 06:33:00,
2013-05-20 02:38:00,74.5,70.4,31.92,SSE,165,0.0,1.0,87,0.00,,---,0.00,VWS V14.00,2013-05-20 06:38:00,
2013-05-20 02:43:00,74.4,70.3,31.92,South,175,1.0,1.0,87,0.00,,---,0.00,VWS V14.00,2013-05-20 06:43:00,
2013-05-20 02:48:00,74.4,70.3,31.92,South,180,0.0,1.0,87,0.00,,---,0.00,VWS V14.00,2013-05-20 06:48:00,
2013-05-20 02:53:00,74.3,70.2,31.92,SSE,165,0.0,1.0,87,0.00,,---,0.00,VWS V14.00,2013-05-20 06:53:00,
2013-05-20 02:58:00,74.2,70.1,31.92,South,172,0.0,2.0,87,0.00,,---,0.00,VWS V14.00,2013-05-20 06:58:00,
2013-05-20 03:03:00,74.1,70.0,31.92,SSE,165,0.0,2.0,87,0.00,,---,0.00,VWS V14.00,2013-05-20 07:03:00,
2013-05-20 03:08:00,74.0,70.2,31.92,South,178,0.0,0.0,88,0.00,,---,0.00,VWS V14.00,2013-05-20 07:08:00,
2013-05-20 03:13:00,73.9,70.1,31.92,South,170,6.0,10.0,88,0.00,,---,0.00,VWS V14.00,2013-05-20 07:13:00,
2013-05-20 03:18:00,73.8,70.0,31.92,South,180,4.0,12.0,88,0.00,,---,0.00,VWS V14.00,2013-05-20 07:18:00,
2013-05-20 03:23:00,73.8,70.0,31.92,South,180,4.0,12.0,88,0.00,,---,0.00,VWS V14.00,2013-05-20 07:23:00,
2013-05-20 03:28:00,73.7,69.9,31.92,South,172,2.0,12.0,88,0.00,,---,0.00,VWS V14.00,2013-05-20 07:28:00,
2013-05-20 03:34:00,73.5,69.7,31.92,SSE,167,5.0,12.0,88,0.00,,---,0.00,VWS V14.00,2013-05-20 07:34:00,
2013-05-20 03:39:00,73.4,69.6,31.92,South,179,5.0,9.0,88,0.00,,---,0.00,VWS V14.00,2013-05-20 07:39:00,
2013-05-20 03:44:00,73.3,69.5,31.92,South,180,4.0,9.0,88,0.00,,---,0.00,VWS V14.00,2013-05-20 07:44:00,
2013-05-20 03:49:00,73.2,69.4,31.92,SSE,156,5.0,9.0,88,0.00,,---,0.00,VWS V14.00,2013-05-20 07:49:00,
2013-05-20 03:54:00,73.1,69.3,31.92,South,175,4.0,11.0,88,0.00,,---,0.00,VWS V14.00,2013-05-20 07:54:00,
2013-05-20 03:59:00,73.1,69.3,31.92,South,180,6.0,11.0,88,0.00,,---,0.00,VWS V14.00,2013-05-20 07:59:00,
2013-05-20 04:04:00,73.0,69.2,31.92,South,185,10.0,12.0,88,0.00,,---,0.00,VWS V14.00,2013-05-20 08:04:00,
2013-05-20 04:09:00,72.9,69.1,31.92,South,173,5.0,10.0,88,0.00,,---,0.00,VWS V14.00,2013-05-20 08:09:00,
2013-05-20 04:14:00,72.8,69.0,30.68,South,171,5.0,10.0,88,0.00,,---,0.00,VWS V14.00,2013-05-20 08:14:00,
2013-05-20 04:19:00,72.7,68.9,30.68,SSE,161,5.0,10.0,88,0.00,,---,0.00,VWS V14.00,2013-05-20 08:19:00,
2013-05-20 04:24:00,72.6,69.2,30.68,South,169,6.0,11.0,89,0.00,,---,0.00,VWS V14.00,2013-05-20 08:24:00,
2013-05-20 04:29:00,72.5,69.1,30.68,South,173,7.0,11.0,89,0.00,,---,0.00,VWS V14.00,2013-05-20 08:29:00,
2013-05-20 04:34:00,72.5,69.1,30.68,South,174,6.0,11.0,89,0.00,,---,0.00,VWS V14.00,2013-05-20 08:34:00,
2013-05-20 04:39:00,72.4,68.7,30.68,South,185,9.0,9.0,88,0.00,,---,0.00,VWS V14.00,2013-05-20 08:39:00,
2013-05-20 04:44:00,72.4,68.7,30.68,South,175,5.0,9.0,88,0.00,,---,0.00,VWS V14.00,2013-05-20 08:44:00,
2013-05-20 04:49:00,72.4,68.7,30.68,South,186,5.0,9.0,88,0.00,,---,0.00,VWS V14.00,2013-05-20 08:49:00,
2013-05-20 04:55:00,72.3,68.6,30.68,South,173,0.0,9.0,88,0.00,,---,0.00,VWS V14.00,2013-05-20 08:55:00,
2013-05-20 05:00:00,72.2,68.4,30.68,South,185,9.0,9.0,88,0.00,,---,0.00,VWS V14.00,2013-05-20 09:00:00,
2013-05-20 05:05:00,72.1,68.3,30.68,South,180,6.0,9.0,88,0.00,,---,0.00,VWS V14.00,2013-05-20 09:05:00,
2013-05-20 05:10:00,72.1,68.3,30.68,SSE,167,5.0,6.0,88,0.00,,---,0.00,VWS V14.00,2013-05-20 09:10:00,
2013-05-20 05:15:00,72.0,68.3,30.68,SSE,168,5.0,6.0,88,0.00,,---,0.00,VWS V14.00,2013-05-20 09:15:00,
2013-05-20 05:20:00,71.9,68.2,30.68,SSE,163,0.0,7.0,88,0.00,,---,0.00,VWS V14.00,2013-05-20 09:20:00,
2013-05-20 05:25:00,71.7,68.0,30.68,SSE,168,0.0,7.0,88,0.00,,---,0.00,VWS V14.00,2013-05-20 09:25:00,
2013-05-20 05:30:00,71.6,67.9,30.68,SSE,165,0.0,7.0,88,0.00,,---,0.00,VWS V14.00,2013-05-20 09:30:00,
2013-05-20 05:35:00,71.4,67.7,30.68,SSE,165,0.0,7.0,88,0.00,,---,0.00,VWS V14.00,2013-05-20 09:35:00,
2013-05-20 05:40:00,71.3,67.6,30.68,South,175,6.0,6.0,88,0.00,,---,0.00,VWS V14.00,2013-05-20 09:40:00,
2013-05-20 05:45:00,71.3,67.6,30.68,South,173,4.0,6.0,88,0.00,,---,0.00,VWS V14.00,2013-05-20 09:45:00,
2013-05-20 05:50:00,71.2,67.5,30.68,SSE,167,3.0,6.0,88,0.00,,---,0.00,VWS V14.00,2013-05-20 09:50:00,
2013-05-20 05:55:00,71.1,67.4,30.68,South,172,7.0,10.0,88,0.00,,---,0.00,VWS V14.00,2013-05-20 09:55:00,
2013-05-20 06:00:00,71.0,67.3,30.68,South,172,3.0,10.0,88,0.00,,---,0.00,VWS V14.00,2013-05-20 10:00:00,
2013-05-20 06:05:00,70.9,67.2,30.68,South,171,6.0,10.0,88,0.00,,---,0.00,VWS V14.00,2013-05-20 10:05:00,
2013-05-20 06:10:00,70.9,67.2,30.68,South,171,7.0,13.0,88,0.00,,---,0.00,VWS V14.00,2013-05-20 10:10:00,
2013-05-20 06:15:00,70.8,67.1,30.68,SSE,164,5.0,13.0,88,0.00,,---,0.00,VWS V14.00,2013-05-20 10:15:00,
2013-05-20 06:20:00,70.7,67.0,30.68,SSE,163,2.0,13.0,88,0.00,,---,0.00,VWS V14.00,2013-05-20 10:20:00,
2013-05-20 06:25:00,70.6,66.9,30.68,SSE,164,3.0,13.0,88,0.00,,---,0.00,VWS V14.00,2013-05-20 10:25:00,
2013-05-20 06:31:00,70.5,66.8,31.48,SSE,157,4.0,13.0,88,0.00,,---,0.00,VWS V14.00,2013-05-20 10:31:00,
2013-05-20 06:36:00,70.5,67.1,31.48,SSE,153,0.0,13.0,89,0.00,,---,0.00,VWS V14.00,2013-05-20 10:36:00,
2013-05-20 06:41:00,70.3,66.9,31.48,SSE,153,0.0,4.0,89,0.00,,---,0.00,VWS V14.00,2013-05-20 10:41:00,
2013-05-20 06:46:00,70.3,66.9,31.48,SSE,158,2.0,5.0,89,0.00,,---,0.00,VWS V14.00,2013-05-20 10:46:00,
2013-05-20 06:51:00,70.3,66.9,31.48,SSE,168,6.0,6.0,89,0.00,,---,0.00,VWS V14.00,2013-05-20 10:51:00,
2013-05-20 06:56:00,70.4,67.0,31.48,SSE,161,0.0,6.0,89,0.00,,---,0.00,VWS V14.00,2013-05-20 10:56:00,
2013-05-20 07:01:00,70.3,66.9,31.48,SE,143,7.0,8.0,89,0.00,,---,0.00,VWS V14.00,2013-05-20 11:01:00,
2013-05-20 07:06:00,70.2,66.5,31.48,SE,146,7.0,8.0,88,0.00,,---,0.00,VWS V14.00,2013-05-20 11:06:00,
2013-05-20 07:11:00,70.1,66.4,31.48,SE,145,6.0,10.0,88,0.00,,---,0.00,VWS V14.00,2013-05-20 11:11:00,
2013-05-20 07:16:00,70.1,66.4,31.48,SSE,151,6.0,10.0,88,0.00,,---,0.00,VWS V14.00,2013-05-20 11:16:00,
2013-05-20 07:21:00,70.2,66.5,31.48,SSE,154,6.0,10.0,88,0.00,,---,0.00,VWS V14.00,2013-05-20 11:21:00,
2013-05-20 07:26:00,70.4,66.7,31.48,SSE,157,3.0,10.0,88,0.00,,---,0.00,VWS V14.00,2013-05-20 11:26:00,
2013-05-20 07:31:00,70.6,66.9,31.48,South,177,5.0,10.0,88,0.00,,---,0.00,VWS V14.00,2013-05-20 11:31:00,
2013-05-20 07:36:00,70.8,66.7,31.48,South,178,6.0,10.0,87,0.00,,---,0.00,VWS V14.00,2013-05-20 11:36:00,
2013-05-20 07:41:00,70.9,66.8,31.48,SSE,168,5.0,10.0,87,0.00,,---,0.00,VWS V14.00,2013-05-20 11:41:00,
2013-05-20 07:46:00,71.0,66.9,31.48,South,177,7.0,10.0,87,0.00,,---,0.00,VWS V14.00,2013-05-20 11:46:00,
2013-05-20 07:52:00,71.0,66.6,31.48,South,169,9.0,11.0,86,0.00,,---,0.00,VWS V14.00,2013-05-20 11:52:00,
2013-05-20 07:57:00,71.1,66.7,31.48,South,173,7.0,12.0,86,0.00,,---,0.00,VWS V14.00,2013-05-20 11:57:00,
2013-05-20 08:02:00,71.0,66.9,31.48,South,172,5.0,12.0,87,0.00,,---,0.00,VWS V14.00,2013-05-20 12:02:00,
2013-05-20 08:07:00,70.8,66.7,31.48,SSE,166,6.0,7.0,87,0.00,,---,0.00,VWS V14.00,2013-05-20 12:07:00,
2013-05-20 08:12:00,70.7,66.7,31.48,SSE,160,4.0,7.0,87,0.00,,---,0.00,VWS V14.00,2013-05-20 12:12:00,
2013-05-20 08:17:00,70.7,66.7,31.48,SSE,162,7.0,11.0,87,0.00,,---,0.00,VWS V14.00,2013-05-20 12:17:00,
2013-05-20 08:22:00,70.7,66.7,31.48,South,171,5.0,11.0,87,0.00,,---,0.00,VWS V14.00,2013-05-20 12:22:00,
2013-05-20 08:27:00,70.9,66.8,31.48,SSE,165,4.0,11.0,87,0.00,,---,0.00,VWS V14.00,2013-05-20 12:27:00,
2013-05-20 08:32:00,71.0,66.9,31.48,SSE,159,5.0,11.0,87,0.00,,---,0.00,VWS V14.00,2013-05-20 12:32:00,
2013-05-20 08:37:00,71.2,67.1,31.48,SSE,161,5.0,5.0,87,0.00,,---,0.00,VWS V14.00,2013-05-20 12:37:00,
2013-05-20 08:42:00,71.3,66.9,31.48,SSE,157,5.0,7.0,86,0.00,,---,0.00,VWS V14.00,2013-05-20 12:42:00,
2013-05-20 08:47:00,71.3,66.9,31.48,SSE,160,3.0,8.0,86,0.00,,---,0.00,VWS V14.00,2013-05-20 12:47:00,
2013-05-20 08:52:00,71.3,66.9,31.48,SSE,155,4.0,8.0,86,0.00,,---,0.00,VWS V14.00,2013-05-20 12:52:00,
2013-05-20 08:57:00,71.5,67.1,31.48,SSE,164,5.0,9.0,86,0.00,,---,0.00,VWS V14.00,2013-05-20 12:57:00,
2013-05-20 09:02:00,71.7,67.3,31.48,South,169,6.0,9.0,86,0.00,,---,0.00,VWS V14.00,2013-05-20 13:02:00,
2013-05-20 09:07:00,71.9,67.5,31.48,SSE,167,6.0,9.0,86,0.00,,---,0.00,VWS V14.00,2013-05-20 13:07:00,
2013-05-20 09:12:00,72.0,67.2,31.48,SSE,165,6.0,9.0,85,0.00,,---,0.00,VWS V14.00,2013-05-20 13:12:00,
2013-05-20 09:18:00,72.1,67.3,31.48,South,171,9.0,13.0,85,0.00,,---,0.00,VWS V14.00,2013-05-20 13:18:00,
2013-05-20 09:23:00,72.2,67.4,31.48,SSE,167,6.0,13.0,85,0.00,,---,0.00,VWS V14.00,2013-05-20 13:23:00,
2013-05-20 09:28:00,72.2,67.4,31.48,SSE,165,6.0,13.0,85,0.00,,---,0.00,VWS V14.00,2013-05-20 13:28:00,
2013-05-20 09:33:00,72.4,67.6,31.48,SSE,162,10.0,13.0,85,0.00,,---,0.00,VWS V14.00,2013-05-20 13:33:00,
2013-05-20 09:38:00,72.7,67.9,31.48,South,170,9.0,10.0,85,0.00,,---,0.00,VWS V14.00,2013-05-20 13:38:00,
2013-05-20 09:43:00,72.9,67.8,31.48,SSE,148,16.0,16.0,84,0.00,,---,0.00,VWS V14.00,2013-05-20 13:43:00,
2013-05-20 09:48:00,73.2,68.1,31.48,SSE,157,9.0,16.0,84,0.00,,---,0.00,VWS V14.00,2013-05-20 13:48:00,
2013-05-20 09:53:00,73.4,68.3,31.48,SSE,156,5.0,16.0,84,0.00,,---,0.00,VWS V14.00,2013-05-20 13:53:00,
2013-05-20 09:58:00,73.7,68.2,31.48,South,169,10.0,16.0,83,0.00,,---,0.00,VWS V14.00,2013-05-20 13:58:00,
2013-05-20 10:03:00,74.0,68.5,31.48,South,169,9.0,16.0,83,0.00,,---,0.00,VWS V14.00,2013-05-20 14:03:00,
2013-05-20 10:08:00,74.2,68.4,31.48,SSE,167,9.0,10.0,82,0.00,,---,0.00,VWS V14.00,2013-05-20 14:08:00,
2013-05-20 10:13:00,74.6,68.8,31.48,SSE,153,7.0,15.0,82,0.00,,---,0.00,VWS V14.00,2013-05-20 14:13:00,
2013-05-20 10:18:00,74.8,68.6,31.48,SSE,161,14.0,16.0,81,0.00,,---,0.00,VWS V14.00,2013-05-20 14:18:00,
2013-05-20 10:23:00,74.8,68.6,31.48,SSE,165,10.0,16.0,81,0.00,,---,0.00,VWS V14.00,2013-05-20 14:23:00,
2013-05-20 10:28:00,74.9,68.7,31.48,South,183,6.0,16.0,81,0.00,,---,0.00,VWS V14.00,2013-05-20 14:28:00,
2013-05-20 10:33:00,75.0,68.8,31.48,SSE,155,8.0,16.0,81,0.00,,---,0.00,VWS V14.00,2013-05-20 14:33:00,
2013-05-20 10:38:00,75.2,69.0,31.48,SSE,167,12.0,12.0,81,0.00,,---,0.00,VWS V14.00,2013-05-20 14:38:00,
2013-05-20 10:43:00,75.5,69.3,31.48,SSE,150,9.0,14.0,81,0.00,,---,0.00,VWS V14.00,2013-05-20 14:43:00,
2013-05-20 10:49:00,75.9,69.3,31.48,South,169,13.0,15.0,80,0.00,,---,0.00,VWS V14.00,2013-05-20 14:49:00,
2013-05-20 10:54:00,76.3,69.3,31.48,SSE,160,9.0,16.0,79,0.00,,---,0.00,VWS V14.00,2013-05-20 14:54:00,
2013-05-20 10:59:00,76.5,69.1,31.48,South,172,2.0,19.0,78,0.00,,---,0.00,VWS V14.00,2013-05-20 14:59:00,
2013-05-20 11:04:00,76.7,69.3,31.48,South,173,9.0,19.0,78,0.00,,---,0.00,VWS V14.00,2013-05-20 15:04:00,
2013-05-20 11:09:00,76.8,69.1,31.48,SSE,165,12.0,13.0,77,0.00,,---,0.00,VWS V14.00,2013-05-20 15:09:00,
2013-05-20 11:14:00,77.0,69.2,31.48,SSE,167,1.0,18.0,77,0.00,,---,0.00,VWS V14.00,2013-05-20 15:14:00,
2013-05-20 11:19:00,77.2,69.4,31.48,South,179,9.0,18.0,77,0.00,,---,0.00,VWS V14.00,2013-05-20 15:19:00,
2013-05-20 11:24:00,77.3,69.2,31.48,South,178,9.0,18.0,76,0.00,,---,0.00,VWS V14.00,2013-05-20 15:24:00,
2013-05-20 11:29:00,77.6,69.4,31.48,South,188,9.0,18.0,76,0.00,,---,0.00,VWS V14.00,2013-05-20 15:29:00,
2013-05-20 11:34:00,77.6,69.4,31.48,South,187,10.0,22.0,76,0.00,,---,0.00,VWS V14.00,2013-05-20 15:34:00,
2013-05-20 11:39:00,77.5,69.3,31.48,SSE,163,13.0,16.0,76,0.00,,---,0.00,VWS V14.00,2013-05-20 15:39:00,
2013-05-20 11:44:00,77.7,69.5,31.48,SSE,163,7.0,16.0,76,0.00,,---,0.00,VWS V14.00,2013-05-20 15:44:00,
2013-05-20 11:49:00,77.8,69.2,31.48,South,182,13.0,17.0,75,0.00,,---,0.00,VWS V14.00,2013-05-20 15:49:00,
2013-05-20 11:54:00,77.8,69.2,31.48,SSE,156,13.0,19.0,75,0.00,,---,0.00,VWS V14.00,2013-05-20 15:54:00,
2013-05-20 12:00:00,78.0,69.4,31.48,SSE,167,12.0,19.0,75,0.00,,---,0.00,VWS V14.00,2013-05-20 16:00:00,
2013-05-20 12:05:00,77.9,69.3,31.48,SSE,156,9.0,19.0,75,0.00,,---,0.00,VWS V14.00,2013-05-20 16:05:00,
2013-05-20 12:10:00,78.0,69.4,31.48,South,173,12.0,14.0,75,0.00,,---,0.00,VWS V14.00,2013-05-20 16:10:00,
2013-05-20 12:15:00,77.9,68.9,31.48,SSE,167,11.0,17.0,74,0.00,,---,0.00,VWS V14.00,2013-05-20 16:15:00,
2013-05-20 12:20:00,78.0,69.1,31.48,SSE,157,15.0,17.0,74,0.00,,---,0.00,VWS V14.00,2013-05-20 16:20:00,
2013-05-20 12:25:00,78.0,69.1,31.48,SSE,159,9.0,17.0,74,0.00,,---,0.00,VWS V14.00,2013-05-20 16:25:00,
2013-05-20 12:30:00,78.0,69.1,31.48,SSE,159,12.0,17.0,74,0.00,,---,0.00,VWS V14.00,2013-05-20 16:30:00,
2013-05-20 12:35:00,78.4,69.0,31.48,SSE,163,5.0,18.0,73,0.00,,---,0.00,VWS V14.00,2013-05-20 16:35:00,
2013-05-20 12:40:00,78.5,69.1,31.48,SSE,163,7.0,14.0,73,0.00,,---,0.00,VWS V14.00,2013-05-20 16:40:00,
2013-05-20 12:45:00,78.2,69.2,31.48,SSE,165,9.0,16.0,74,0.00,,---,0.00,VWS V14.00,2013-05-20 16:45:00,
2013-05-20 12:50:00,78.7,69.3,31.48,SSE,155,12.0,19.0,73,0.00,,---,0.00,VWS V14.00,2013-05-20 16:50:00,
2013-05-20 12:55:00,78.3,68.9,31.48,SSE,153,13.0,19.0,73,0.00,,---,0.00,VWS V14.00,2013-05-20 16:55:00,
2013-05-20 13:00:00,78.3,68.9,30.98,SSE,164,12.0,19.0,73,0.00,,---,0.00,VWS V14.00,2013-05-20 17:00:00,
2013-05-20 13:05:00,78.8,69.0,30.98,SSE,157,12.0,19.0,72,0.00,,---,0.00,VWS V14.00,2013-05-20 17:05:00,
2013-05-20 13:10:00,78.7,68.9,30.98,SSE,157,10.0,16.0,72,0.00,,---,0.00,VWS V14.00,2013-05-20 17:10:00,
2013-05-20 13:15:00,78.7,68.5,30.98,SE,146,11.0,17.0,71,0.00,,---,0.00,VWS V14.00,2013-05-20 17:15:00,
2013-05-20 13:21:00,79.1,68.9,30.98,SSE,153,15.0,19.0,71,0.00,,---,0.00,VWS V14.00,2013-05-20 17:21:00,
2013-05-20 13:26:00,79.4,68.8,30.98,SSE,161,10.0,19.0,70,0.00,,---,0.00,VWS V14.00,2013-05-20 17:26:00,
2013-05-20 13:31:00,79.6,69.4,30.98,SSE,167,11.0,19.0,71,0.00,,---,0.00,VWS V14.00,2013-05-20 17:31:00,
2013-05-20 13:36:00,80.0,69.3,30.98,South,178,10.0,19.0,70,0.00,,---,0.00,VWS V14.00,2013-05-20 17:36:00,
2013-05-20 13:41:00,80.4,68.9,30.98,SSE,157,12.0,16.0,68,0.00,,---,0.00,VWS V14.00,2013-05-20 17:41:00,
2013-05-20 13:46:00,80.5,69.0,30.98,SSE,157,7.0,16.0,68,0.00,,---,0.00,VWS V14.00,2013-05-20 17:46:00,
2013-05-20 13:51:00,80.7,68.7,30.98,SSE,152,11.0,17.0,67,0.00,,---,0.00,VWS V14.00,2013-05-20 17:51:00,
2013-05-20 13:56:00,80.9,68.5,30.98,South,182,13.0,19.0,66,0.00,,---,0.00,VWS V14.00,2013-05-20 17:56:00,
2013-05-20 14:01:00,80.8,67.9,30.98,SSE,160,12.0,19.0,65,0.00,,---,0.00,VWS V14.00,2013-05-20 18:01:00,
2013-05-20 14:06:00,80.9,68.5,30.38,SSE,156,11.0,19.0,66,0.00,,---,0.00,VWS V14.00,2013-05-20 18:06:00,
2013-05-20 14:11:00,80.9,68.5,30.38,SSE,157,7.0,18.0,66,0.00,,---,0.00,VWS V14.00,2013-05-20 18:11:00,
2013-05-20 14:16:00,80.9,68.5,30.38,SSE,157,19.0,19.0,66,0.00,,---,0.00,VWS V14.00,2013-05-20 18:16:00,
2013-05-20 14:21:00,80.9,68.5,30.38,SSE,152,15.0,21.0,66,0.00,,---,0.00,VWS V14.00,2013-05-20 18:21:00,
2013-05-20 14:27:00,81.1,69.1,30.38,SSE,150,15.0,21.0,67,0.00,,---,0.00,VWS V14.00,2013-05-20 18:27:00,
2013-05-20 14:32:00,80.9,68.5,30.38,SSE,157,10.0,21.0,66,0.00,,---,0.00,VWS V14.00,2013-05-20 18:32:00,
2013-05-20 14:37:00,81.1,68.7,30.38,SSE,161,13.0,14.0,66,0.00,,---,0.00,VWS V14.00,2013-05-20 18:37:00,
2013-05-20 14:42:00,81.2,67.9,30.38,SSE,163,14.0,21.0,64,0.00,,---,0.00,VWS V14.00,2013-05-20 18:42:00,
2013-05-20 14:47:00,81.4,68.1,30.38,South,181,14.0,21.0,64,0.00,,---,0.00,VWS V14.00,2013-05-20 18:47:00,
2013-05-20 14:52:00,81.4,68.5,30.38,South,171,11.0,21.0,65,0.00,,---,0.00,VWS V14.00,2013-05-20 18:52:00,
2013-05-20 14:57:00,81.2,68.3,30.38,SSE,150,7.0,21.0,65,0.00,,---,0.00,VWS V14.00,2013-05-20 18:57:00,
2013-05-20 15:02:00,80.8,68.4,30.38,South,170,13.0,21.0,66,0.00,,---,0.00,VWS V14.00,2013-05-20 19:02:00,
2013-05-20 15:07:00,80.7,68.3,30.38,SSE,164,11.0,14.0,66,0.00,,---,0.00,VWS V14.00,2013-05-20 19:07:00,
2013-05-20 15:12:00,80.7,68.3,30.38,SSE,160,9.0,15.0,66,0.00,,---,0.00,VWS V14.00,2013-05-20 19:12:00,
2013-05-20 15:17:00,80.8,68.4,30.38,SSE,165,12.0,15.0,66,0.00,,---,0.00,VWS V14.00,2013-05-20 19:17:00,
2013-05-20 15:22:00,80.7,68.7,30.38,SSE,165,10.0,15.0,67,0.00,,---,0.00,VWS V14.00,2013-05-20 19:22:00,
2013-05-20 15:27:00,80.6,69.1,30.38,SSE,164,11.0,16.0,68,0.00,,---,0.00,VWS V14.00,2013-05-20 19:27:00,
2013-05-20 15:32:00,81.1,68.7,30.38,SSE,156,11.0,16.0,66,0.00,,---,0.00,VWS V14.00,2013-05-20 19:32:00,
2013-05-20 15:37:00,81.4,68.5,30.38,South,176,11.0,14.0,65,0.00,,---,0.00,VWS V14.00,2013-05-20 19:37:00,
2013-05-20 15:42:00,81.4,68.5,30.38,SSE,156,14.0,15.0,65,0.00,,---,0.00,VWS V14.00,2013-05-20 19:42:00,
2013-05-20 15:48:00,81.3,68.9,30.46,SSE,162,10.0,17.0,66,0.00,,---,0.00,VWS V14.00,2013-05-20 19:48:00,
2013-05-20 15:53:00,80.7,68.7,30.46,South,173,11.0,17.0,67,0.00,,---,0.00,VWS V14.00,2013-05-20 19:53:00,
2013-05-20 15:58:00,80.9,68.9,30.46,SSE,167,10.0,17.0,67,0.00,,---,0.00,VWS V14.00,2013-05-20 19:58:00,
2013-05-20 16:03:00,81.3,68.9,30.46,SSE,163,11.0,17.0,66,0.00,,---,0.00,VWS V14.00,2013-05-20 20:03:00,
2013-05-20 16:08:00,81.6,68.7,30.46,SSE,159,14.0,18.0,65,0.00,,---,0.00,VWS V14.00,2013-05-20 20:08:00,
2013-05-20 16:13:00,81.4,69.0,30.46,South,171,19.0,19.0,66,0.00,,---,0.00,VWS V14.00,2013-05-20 20:13:00,
2013-05-20 16:18:00,81.6,69.2,30.46,SSE,167,16.0,20.0,66,0.00,,---,0.00,VWS V14.00,2013-05-20 20:18:00,
2013-05-20 16:23:00,81.4,69.0,30.46,SSE,163,11.0,20.0,66,0.00,,---,0.00,VWS V14.00,2013-05-20 20:23:00,
2013-05-20 16:28:00,81.2,68.8,30.90,SSE,160,9.0,20.0,66,0.00,,---,0.00,VWS V14.00,2013-05-20 20:28:00,
2013-05-20 16:33:00,81.8,69.3,30.90,SSE,167,10.0,20.0,66,0.00,,---,0.00,VWS V14.00,2013-05-20 20:33:00,
2013-05-20 16:38:00,82.1,68.7,30.90,South,182,9.0,20.0,64,0.00,,---,0.00,VWS V14.00,2013-05-20 20:38:00,
2013-05-20 16:43:00,82.1,69.2,30.90,South,169,16.0,20.0,65,0.00,,---,0.00,VWS V14.00,2013-05-20 20:43:00,
2013-05-20 16:49:00,82.1,68.7,30.90,SSE,157,15.0,20.0,64,0.00,,---,0.00,VWS V14.00,2013-05-20 20:49:00,
2013-05-20 16:54:00,82.4,68.6,30.90,SSE,156,9.0,20.0,63,0.00,,---,0.00,VWS V14.00,2013-05-20 20:54:00,
2013-05-20 16:59:00,82.5,69.1,30.90,South,171,6.0,20.0,64,0.00,,---,0.00,VWS V14.00,2013-05-20 20:59:00,
2013-05-20 17:04:00,82.3,69.4,30.90,SSE,161,7.0,20.0,65,0.00,,---,0.00,VWS V14.00,2013-05-20 21:04:00,
2013-05-20 17:09:00,82.2,68.8,32.32,SSE,160,11.0,17.0,64,0.00,,---,0.00,VWS V14.00,2013-05-20 21:09:00,
2013-05-20 17:14:00,82.1,68.7,32.32,South,169,11.0,19.0,64,0.00,,---,0.00,VWS V14.00,2013-05-20 21:14:00,
2013-05-20 17:19:00,82.1,68.7,32.32,South,176,12.0,19.0,64,0.00,,---,0.00,VWS V14.00,2013-05-20 21:19:00,
2013-05-20 17:24:00,82.0,69.1,32.32,South,173,11.0,19.0,65,0.00,,---,0.00,VWS V14.00,2013-05-20 21:24:00,
2013-05-20 17:29:00,81.8,69.3,32.32,SSE,161,9.0,19.0,66,0.00,,---,0.00,VWS V14.00,2013-05-20 21:29:00,
2013-05-20 17:34:00,81.8,69.3,32.32,South,178,9.0,19.0,66,0.00,,---,0.00,VWS V14.00,2013-05-20 21:34:00,
2013-05-20 17:39:00,81.8,69.3,32.32,South,173,7.0,11.0,66,0.00,,---,0.00,VWS V14.00,2013-05-20 21:39:00,
2013-05-20 17:45:00,82.0,69.5,32.32,South,171,5.0,11.0,66,0.00,,---,0.00,VWS V14.00,2013-05-20 21:45:00,
2013-05-20 17:50:00,81.9,69.4,32.32,South,169,6.0,11.0,66,0.00,,---,0.00,VWS V14.00,2013-05-20 21:50:00,
2013-05-20 17:55:00,82.0,69.1,32.32,South,171,6.0,11.0,65,0.00,,---,0.00,VWS V14.00,2013-05-20 21:55:00,
2013-05-20 18:00:00,82.2,68.8,32.32,SSE,156,9.0,13.0,64,0.00,,---,0.00,VWS V14.00,2013-05-20 22:00:00,
2013-05-20 18:05:00,82.4,69.5,32.32,South,169,7.0,13.0,65,0.00,,---,0.00,VWS V14.00,2013-05-20 22:05:00,
2013-05-20 18:10:00,81.9,69.4,32.32,SSE,163,12.0,14.0,66,0.00,,---,0.00,VWS V14.00,2013-05-20 22:10:00,
2013-05-20 18:15:00,82.0,69.5,32.32,SSE,168,7.0,14.0,66,0.00,,---,0.00,VWS V14.00,2013-05-20 22:15:00,
2013-05-20 18:20:00,81.9,69.4,32.32,South,187,11.0,15.0,66,0.00,,---,0.00,VWS V14.00,2013-05-20 22:20:00,
2013-05-20 18:25:00,81.9,69.4,32.32,South,171,9.0,15.0,66,0.00,,---,0.00,VWS V14.00,2013-05-20 22:25:00,
2013-05-20 18:30:00,81.9,69.9,32.32,SSE,168,3.0,15.0,67,0.00,,---,0.00,VWS V14.00,2013-05-20 22:30:00,
2013-05-20 18:35:00,82.0,69.5,32.32,SSE,150,5.0,15.0,66,0.00,,---,0.00,VWS V14.00,2013-05-20 22:35:00,
2013-05-20 18:40:00,82.1,69.2,32.32,SSE,165,4.0,11.0,65,0.00,,---,0.00,VWS V14.00,2013-05-20 22:40:00,
2013-05-20 18:46:00,81.9,69.4,32.32,South,177,2.0,11.0,66,0.00,,---,0.00,VWS V14.00,2013-05-20 22:46:00,
2013-05-20 18:51:00,81.8,69.3,32.32,South,173,4.0,11.0,66,0.00,,---,0.00,VWS V14.00,2013-05-20 22:51:00,
2013-05-20 18:56:00,81.9,69.0,32.32,SSE,161,5.0,11.0,65,0.00,,---,0.00,VWS V14.00,2013-05-20 22:56:00,
2013-05-20 19:01:00,81.8,68.9,32.32,SSE,160,7.0,15.0,65,0.00,,---,0.00,VWS V14.00,2013-05-20 23:01:00,
2013-05-20 19:06:00,81.8,68.9,32.32,South,176,7.0,15.0,65,0.00,,---,0.00,VWS V14.00,2013-05-20 23:06:00,
2013-05-20 19:11:00,81.8,68.9,32.32,SSE,160,6.0,10.0,65,0.00,,---,0.00,VWS V14.00,2013-05-20 23:11:00,
2013-05-20 19:16:00,81.8,68.9,32.32,SSE,163,7.0,12.0,65,0.00,,---,0.00,VWS V14.00,2013-05-20 23:16:00,
2013-05-20 19:21:00,81.6,69.2,32.32,South,175,3.0,12.0,66,0.00,,---,0.00,VWS V14.00,2013-05-20 23:21:00,
2013-05-20 19:26:00,81.5,69.5,32.32,South,173,0.0,12.0,67,0.00,,---,0.00,VWS V14.00,2013-05-20 23:26:00,
2013-05-20 19:31:00,81.4,69.4,32.32,South,173,0.0,12.0,67,0.00,,---,0.00,VWS V14.00,2013-05-20 23:31:00,
2013-05-20 19:37:00,81.3,69.7,32.32,South,173,0.0,0.0,68,0.00,,---,0.00,VWS V14.00,2013-05-20 23:37:00,
2013-05-20 19:42:00,81.2,70.1,32.32,South,172,0.0,4.0,69,0.00,,---,0.00,VWS V14.00,2013-05-20 23:42:00,
2013-05-20 19:47:00,80.9,69.4,32.32,South,172,2.0,4.0,68,0.00,,---,0.00,VWS V14.00,2013-05-20 23:47:00,
2013-05-20 19:52:00,80.6,69.5,32.32,South,172,0.0,4.0,69,0.00,,---,0.00,VWS V14.00,2013-05-20 23:52:00,
2013-05-20 19:57:00,80.6,69.5,32.32,SSE,165,0.0,4.0,69,0.00,,---,0.00,VWS V14.00,2013-05-20 23:57:00,
2013-05-20 20:02:00,80.4,69.3,32.32,SSE,164,0.0,4.0,69,0.00,,---,0.00,VWS V14.00,2013-05-21 00:02:00,
2013-05-20 20:07:00,80.0,69.3,32.32,SSE,164,0.0,4.0,70,0.00,,---,0.00,VWS V14.00,2013-05-21 00:07:00,
2013-05-20 20:12:00,79.8,69.2,32.32,SSE,165,1.0,4.0,70,0.00,,---,0.00,VWS V14.00,2013-05-21 00:12:00,
2013-05-20 20:17:00,79.5,68.9,32.32,SSE,161,0.0,5.0,70,0.00,,---,0.00,VWS V14.00,2013-05-21 00:17:00,
2013-05-20 20:22:00,79.1,69.3,32.32,SSE,163,3.0,5.0,72,0.00,,---,0.00,VWS V14.00,2013-05-21 00:22:00,
2013-05-20 20:27:00,78.7,69.3,32.32,SSE,159,3.0,9.0,73,0.00,,---,0.00,VWS V14.00,2013-05-21 00:27:00,
2013-05-20 20:32:00,78.5,69.1,32.32,SSE,155,4.0,9.0,73,0.00,,---,0.00,VWS V14.00,2013-05-21 00:32:00,
2013-05-20 20:37:00,78.3,68.9,32.32,SSE,159,5.0,6.0,73,0.00,,---,0.00,VWS V14.00,2013-05-21 00:37:00,
2013-05-20 20:43:00,78.3,68.9,32.32,SSE,163,4.0,7.0,73,0.00,,---,0.00,VWS V14.00,2013-05-21 00:43:00,
2013-05-20 20:48:00,78.1,69.1,32.32,SSE,158,6.0,7.0,74,0.00,,---,0.00,VWS V14.00,2013-05-21 00:48:00,
2013-05-20 20:53:00,77.8,69.2,32.32,SSE,152,3.0,7.0,75,0.00,,---,0.00,VWS V14.00,2013-05-21 00:53:00,
2013-05-20 20:58:00,77.4,69.2,32.32,SSE,153,3.0,7.0,76,0.00,,---,0.00,VWS V14.00,2013-05-21 00:58:00,
2013-05-20 21:03:00,77.3,68.8,32.32,SSE,155,4.0,7.0,75,0.00,,---,0.00,VWS V14.00,2013-05-21 01:03:00,
2013-05-20 21:08:00,77.1,69.0,32.32,SSE,155,4.0,5.0,76,0.00,,---,0.00,VWS V14.00,2013-05-21 01:08:00,
2013-05-20 21:13:00,76.9,69.2,32.32,SSE,156,3.0,5.0,77,0.00,,---,0.00,VWS V14.00,2013-05-21 01:13:00,
2013-05-20 21:18:00,76.6,68.9,32.32,SSE,156,0.0,5.0,77,0.00,,---,0.00,VWS V14.00,2013-05-21 01:18:00,
2013-05-20 21:23:00,76.5,68.4,32.32,SSE,156,0.0,5.0,76,0.00,,---,0.00,VWS V14.00,2013-05-21 01:23:00,
2013-05-20 21:28:00,76.4,69.0,32.32,SSE,158,0.0,5.0,78,0.00,,---,0.00,VWS V14.00,2013-05-21 01:28:00,
2013-05-20 21:34:00,77.5,69.0,32.32,SSE,159,10.0,12.0,75,0.00,,---,0.00,VWS V14.00,2013-05-21 01:34:00,
2013-05-20 21:39:00,77.9,69.3,32.32,SSE,149,9.0,13.0,75,0.00,,---,0.00,VWS V14.00,2013-05-21 01:39:00,
2013-05-20 21:44:00,77.5,69.3,32.32,SSE,159,7.0,13.0,76,0.00,,---,0.00,VWS V14.00,2013-05-21 01:44:00,
2013-05-20 21:49:00,77.6,69.1,32.32,SSE,153,10.0,13.0,75,0.00,,---,0.00,VWS V14.00,2013-05-21 01:49:00,
2013-05-20 21:54:00,77.8,69.2,32.32,South,176,7.0,13.0,75,0.00,,---,0.00,VWS V14.00,2013-05-21 01:54:00,
2013-05-20 21:59:00,78.0,69.4,32.32,SSE,159,9.0,13.0,75,0.00,,---,0.00,VWS V14.00,2013-05-21 01:59:00,
2013-05-20 22:04:00,77.9,68.9,32.32,SSE,160,6.0,13.0,74,0.00,,---,0.00,VWS V14.00,2013-05-21 02:04:00,
2013-05-20 22:09:00,77.9,69.3,32.32,SSE,165,7.0,11.0,75,0.00,,---,0.00,VWS V14.00,2013-05-21 02:09:00,
2013-05-20 22:14:00,77.9,69.3,32.32,SSE,159,8.0,15.0,75,0.00,,---,0.00,VWS V14.00,2013-05-21 02:14:00,
2013-05-20 22:19:00,77.8,69.2,32.32,SSE,165,12.0,15.0,75,0.00,,---,0.00,VWS V14.00,2013-05-21 02:19:00,
2013-05-20 22:25:00,78.0,69.4,32.32,SSE,154,11.0,17.0,75,0.00,,---,0.00,VWS V14.00,2013-05-21 02:25:00,
2013-05-20 22:30:00,77.9,69.3,31.38,South,180,10.0,17.0,75,0.00,,---,0.00,VWS V14.00,2013-05-21 02:30:00,
2013-05-20 22:35:00,77.8,69.2,31.38,South,179,9.0,17.0,75,0.00,,---,0.00,VWS V14.00,2013-05-21 02:35:00,
2013-05-20 22:40:00,78.1,69.1,31.38,SSE,167,13.0,19.0,74,0.00,,---,0.00,VWS V14.00,2013-05-21 02:40:00,
2013-05-20 22:45:00,78.2,69.2,31.38,South,176,12.0,19.0,74,0.00,,---,0.00,VWS V14.00,2013-05-21 02:45:00,
2013-05-20 22:50:00,78.2,69.2,31.38,South,169,10.0,19.0,74,0.00,,---,0.00,VWS V14.00,2013-05-21 02:50:00,
2013-05-20 22:55:00,78.1,69.1,31.38,SSE,167,9.0,19.0,74,0.00,,---,0.00,VWS V14.00,2013-05-21 02:55:00,
2013-05-20 23:00:00,77.7,69.2,31.38,SSE,167,10.0,19.0,75,0.00,,---,0.00,VWS V14.00,2013-05-21 03:00:00,
2013-05-20 23:05:00,77.5,69.3,31.38,SSE,165,12.0,19.0,76,0.00,,---,0.00,VWS V14.00,2013-05-21 03:05:00,
2013-05-20 23:10:00,77.5,69.0,31.38,South,171,13.0,15.0,75,0.00,,---,0.00,VWS V14.00,2013-05-21 03:10:00,
2013-05-20 23:16:00,77.6,69.1,31.38,SSE,158,9.0,19.0,75,0.00,,---,0.00,VWS V14.00,2013-05-21 03:16:00,
2013-05-20 23:21:00,77.6,69.1,31.38,SSE,156,12.0,19.0,75,0.00,,---,0.00,VWS V14.00,2013-05-21 03:21:00,
2013-05-20 23:26:00,77.4,68.9,31.38,SSE,156,13.0,19.0,75,0.00,,---,0.00,VWS V14.00,2013-05-21 03:26:00,
2013-05-20 23:31:00,77.1,69.0,31.38,SSE,157,11.0,19.0,76,0.00,,---,0.00,VWS V14.00,2013-05-21 03:31:00,
2013-05-20 23:36:00,76.9,69.2,31.38,SSE,168,13.0,19.0,77,0.00,,---,0.00,VWS V14.00,2013-05-21 03:36:00,
2013-05-20 23:41:00,76.8,68.7,31.38,SSE,157,14.0,17.0,76,0.00,,---,0.00,VWS V14.00,2013-05-21 03:41:00,
2013-05-20 23:46:00,76.9,68.8,31.38,SE,140,10.0,20.0,76,0.00,,---,0.00,VWS V14.00,2013-05-21 03:46:00,
2013-05-20 23:51:00,76.9,68.8,31.38,SSE,157,6.0,20.0,76,0.00,,---,0.00,VWS V14.00,2013-05-21 03:51:00,
2013-05-20 23:56:00,76.9,68.8,31.38,South,177,15.0,20.0,76,0.00,,---,0.00,VWS V14.00,2013-05-21 03:56:00,